createdAt,value
2017-12-15T00:00:45.158Z,98649.52
2017-12-15T00:03:15.200Z,98650.37
2017-12-15T00:05:45.747Z,98650.37
2017-12-15T00:08:21.738Z,98637.37
2017-12-15T00:10:52.041Z,98656.62
2017-12-15T00:13:22.831Z,98649.80
2017-12-15T00:15:53.517Z,98652.48
2017-12-15T00:18:24.072Z,98654.14
2017-12-15T00:20:54.301Z,98653.84
2017-12-15T00:23:26.410Z,98656.64
2017-12-15T00:25:56.658Z,98659.59
2017-12-15T00:28:27.030Z,98660.45
2017-12-15T00:30:57.310Z,98659.83
2017-12-15T00:33:28.112Z,98658.20
2017-12-15T00:35:58.401Z,98660.66
2017-12-15T00:38:29.668Z,98663.55
2017-12-15T00:41:00.310Z,98660.78
2017-12-15T00:43:31.817Z,98659.06
2017-12-15T00:46:02.523Z,98660.98
2017-12-15T00:48:36.986Z,98665.99
2017-12-15T00:51:07.228Z,98653.12
2017-12-15T00:53:37.962Z,98659.87
2017-12-15T00:56:11.855Z,98661.66
2017-12-15T00:58:42.573Z,98661.14
2017-12-15T01:01:12.915Z,98663.98
2017-12-15T01:03:43.343Z,98666.79
2017-12-15T01:06:14.177Z,98669.58
2017-12-15T01:08:44.557Z,98669.95
2017-12-15T01:11:14.843Z,98667.81
2017-12-15T01:13:45.583Z,98684.03
2017-12-15T01:16:17.565Z,98686.80
2017-12-15T01:18:48.275Z,98686.27
2017-12-15T01:21:19.481Z,98693.47
2017-12-15T01:23:51.456Z,98694.90
2017-12-15T01:26:22.710Z,98698.34
2017-12-15T01:28:53.070Z,98695.61
2017-12-15T01:31:23.441Z,98700.36
2017-12-15T01:33:54.241Z,98705.06
2017-12-15T01:36:24.658Z,98707.12
2017-12-15T01:38:55.002Z,98714.41
2017-12-15T01:41:25.612Z,98712.59
2017-12-15T01:43:56.850Z,98713.29
2017-12-15T01:46:27.235Z,98729.56
2017-12-15T01:48:57.437Z,98723.48
2017-12-15T01:51:28.694Z,98727.93
2017-12-15T01:53:59.199Z,98736.88
2017-12-15T01:56:30.606Z,98740.91
2017-12-15T01:59:00.822Z,98746.61
2017-12-15T02:01:32.082Z,98756.56
2017-12-15T02:04:02.494Z,98758.70
2017-12-15T02:06:32.842Z,98771.66
2017-12-15T02:09:04.035Z,98763.05
2017-12-15T02:11:34.537Z,98776.81
2017-12-15T02:14:04.963Z,98779.29
2017-12-15T02:16:35.732Z,98783.33
2017-12-15T02:19:05.923Z,98787.56
2017-12-15T02:21:36.628Z,98790.75
2017-12-15T02:24:06.941Z,98792.90
2017-12-15T02:26:37.354Z,98799.47
2017-12-15T02:29:08.218Z,98805.73
2017-12-15T02:31:38.536Z,98810.16
2017-12-15T02:34:08.830Z,98807.91
2017-12-15T02:36:39.501Z,98812.66
2017-12-15T02:39:09.733Z,98827.16
2017-12-15T02:44:44.645Z,98823.67
2017-12-15T02:47:15.083Z,98831.70
2017-12-15T02:49:45.613Z,98828.38
2017-12-15T02:52:16.055Z,98837.42
2017-12-15T02:54:46.455Z,98832.45
2017-12-15T02:57:17.141Z,98839.50
2017-12-15T02:59:48.141Z,98840.16
2017-12-15T03:02:19.060Z,98843.13
2017-12-15T03:04:50.509Z,98849.46
2017-12-15T03:07:21.545Z,98853.98
2017-12-15T03:09:51.826Z,98849.95
2017-12-15T03:12:23.041Z,98861.39
2017-12-15T03:14:53.636Z,98866.65
2017-12-15T03:17:23.897Z,98857.50
2017-12-15T03:19:55.400Z,98859.06
2017-12-15T03:22:26.646Z,98861.71
2017-12-15T03:24:57.605Z,98858.95
2017-12-15T03:27:28.725Z,98865.14
2017-12-15T03:29:59.107Z,98869.55
2017-12-15T03:32:31.753Z,98868.60
2017-12-15T03:35:02.104Z,98864.31
2017-12-15T03:40:29.978Z,98859.02
2017-12-15T03:43:00.294Z,98856.67
2017-12-15T03:45:31.776Z,98860.44
2017-12-15T03:48:07.086Z,98847.97
2017-12-15T03:50:37.223Z,98848.72
2017-12-15T03:53:11.775Z,98846.16
2017-12-15T03:55:41.981Z,98846.35
2017-12-15T03:58:13.308Z,98852.02
2017-12-15T04:00:43.837Z,98851.14
2017-12-15T04:03:14.172Z,98859.26
2017-12-15T04:05:44.217Z,98854.98
2017-12-15T04:08:14.813Z,98863.05
2017-12-15T04:10:45.111Z,98864.00
2017-12-15T04:13:15.286Z,98857.65
2017-12-15T04:15:46.080Z,98868.04
2017-12-15T04:18:16.366Z,98871.20
2017-12-15T04:20:46.531Z,98873.67
2017-12-15T04:23:16.889Z,98878.94
2017-12-15T04:25:47.019Z,98867.66
2017-12-15T04:28:17.224Z,98872.27
2017-12-15T04:30:47.461Z,98871.19
2017-12-15T04:33:17.532Z,98877.30
2017-12-15T04:35:48.030Z,98886.03
2017-12-15T04:38:18.273Z,98884.91
2017-12-15T04:40:48.672Z,98887.84
2017-12-15T04:43:19.998Z,98886.38
2017-12-15T04:45:50.186Z,98884.78
2017-12-15T04:48:20.818Z,98891.70
2017-12-15T04:50:51.554Z,98894.50
2017-12-15T04:53:22.535Z,98893.31
2017-12-15T04:55:52.896Z,98891.28
2017-12-15T04:58:23.496Z,98883.05
2017-12-15T05:00:54.351Z,98896.13
2017-12-15T05:03:24.476Z,98893.61
2017-12-15T05:05:54.940Z,98898.84
2017-12-15T05:08:24.966Z,98896.45
2017-12-15T05:10:55.063Z,98904.03
2017-12-15T05:13:25.326Z,98893.91
2017-12-15T05:15:55.534Z,98900.64
2017-12-15T05:18:25.767Z,98898.08
2017-12-15T05:20:56.839Z,98905.80
2017-12-15T05:23:27.106Z,98907.88
2017-12-15T05:25:57.401Z,98905.60
2017-12-15T05:28:28.163Z,98907.78
2017-12-15T05:30:58.293Z,98910.55
2017-12-15T05:33:30.352Z,98911.86
2017-12-15T05:36:01.385Z,98908.08
2017-12-15T05:38:33.211Z,98915.70
2017-12-15T05:41:06.513Z,98920.18
2017-12-15T05:43:37.511Z,98917.35
2017-12-15T05:46:07.778Z,98920.73
2017-12-15T05:48:38.886Z,98907.61
2017-12-15T05:51:09.265Z,98926.23
2017-12-15T05:53:39.632Z,98924.81
2017-12-15T05:56:10.088Z,98920.92
2017-12-15T05:58:41.677Z,98926.97
2017-12-15T06:01:12.189Z,98927.13
2017-12-15T06:03:42.312Z,98925.38
2017-12-15T06:06:13.135Z,98930.44
2017-12-15T06:08:43.396Z,98922.52
2017-12-15T06:11:13.752Z,98931.17
2017-12-15T06:13:44.032Z,98927.33
2017-12-15T06:16:14.181Z,98931.98
2017-12-15T06:18:44.343Z,98922.22
2017-12-15T06:21:14.730Z,98932.33
2017-12-15T06:23:44.819Z,98931.70
2017-12-15T06:26:15.290Z,98930.53
2017-12-15T06:28:46.294Z,98932.05
2017-12-15T06:31:16.911Z,98937.02
2017-12-15T06:33:47.399Z,98917.98
2017-12-15T06:36:17.983Z,98941.45
2017-12-15T06:38:49.824Z,98941.52
2017-12-15T06:41:20.658Z,98950.56
2017-12-15T06:43:50.901Z,98943.23
2017-12-15T06:46:21.847Z,98955.31
2017-12-15T06:48:52.529Z,98957.73
2017-12-15T06:51:23.466Z,98969.73
2017-12-15T06:53:56.210Z,98973.03
2017-12-15T06:56:54.064Z,98971.21
2017-12-15T06:59:25.458Z,98970.17
2017-12-15T07:01:55.870Z,98963.19
2017-12-15T07:04:28.073Z,98967.33
2017-12-15T07:06:58.920Z,98970.52
2017-12-15T07:09:29.647Z,98964.17
2017-12-15T07:11:59.756Z,98962.88
2017-12-15T07:14:31.564Z,98964.87
2017-12-15T07:17:02.140Z,98966.03
2017-12-15T07:19:39.336Z,98968.50
2017-12-15T07:22:09.604Z,98962.62
2017-12-15T07:24:42.059Z,98972.09
2017-12-15T07:27:22.802Z,98966.09
2017-12-15T07:29:52.932Z,98976.36
2017-12-15T07:32:24.091Z,98979.11
2017-12-15T07:34:57.313Z,98981.22
2017-12-15T07:37:51.362Z,98978.88
2017-12-15T07:40:22.499Z,98974.63
2017-12-15T07:45:20.026Z,98976.77
2017-12-15T07:47:51.961Z,98977.05
2017-12-15T07:50:23.251Z,98982.70
2017-12-15T07:53:08.504Z,98966.38
2017-12-15T07:55:43.536Z,98989.88
2017-12-15T07:58:14.289Z,98990.59
2017-12-15T08:00:47.169Z,98956.72
2017-12-15T08:03:17.664Z,98982.91
2017-12-15T08:05:49.126Z,98990.83
2017-12-15T08:08:19.712Z,98987.52
2017-12-15T08:10:50.278Z,98986.54
2017-12-15T08:13:21.212Z,98996.23
2017-12-15T08:15:52.263Z,98996.48
2017-12-15T08:18:24.989Z,98996.55
2017-12-15T08:20:57.367Z,98999.23
2017-12-15T08:23:27.682Z,98999.00
2017-12-15T08:25:58.272Z,99000.99
2017-12-15T08:28:33.258Z,99005.80
2017-12-15T08:31:03.921Z,99011.54
2017-12-15T08:33:35.054Z,99009.17
2017-12-15T08:36:07.072Z,99008.75
2017-12-15T08:38:39.040Z,99020.30
2017-12-15T08:44:13.464Z,99022.98
2017-12-15T08:46:44.325Z,99026.89
2017-12-15T08:49:14.838Z,99036.97
2017-12-15T08:51:45.908Z,99030.34
2017-12-15T08:54:16.137Z,99038.88
2017-12-15T08:56:46.832Z,99044.64
2017-12-15T08:59:17.612Z,99041.47
2017-12-15T09:01:48.717Z,99031.59
2017-12-15T09:04:25.949Z,99049.23
2017-12-15T09:06:57.216Z,99059.66
2017-12-15T09:09:28.584Z,99057.63
2017-12-15T09:11:59.650Z,99064.17
2017-12-15T09:14:31.235Z,99063.17
2017-12-15T09:17:02.206Z,99047.78
2017-12-15T09:19:33.153Z,99069.12
2017-12-15T09:22:03.413Z,99061.56
2017-12-15T09:24:34.196Z,99063.37
2017-12-15T09:27:05.244Z,99070.19
2017-12-15T09:29:35.898Z,99066.45
2017-12-15T09:32:06.354Z,99056.10
2017-12-15T09:34:37.659Z,99076.77
2017-12-15T09:37:10.859Z,99078.59
2017-12-15T09:39:41.732Z,99086.15
2017-12-15T09:42:12.446Z,99009.70
2017-12-15T09:44:43.895Z,99081.64
2017-12-15T09:47:14.542Z,99091.34
2017-12-15T09:49:49.227Z,99080.64
2017-12-15T09:52:36.145Z,99088.23
2017-12-15T09:55:14.515Z,99096.30
2017-12-15T09:57:50.782Z,99089.56
2017-12-15T10:00:29.406Z,99085.61
2017-12-15T10:03:12.253Z,99097.96
2017-12-15T10:05:43.102Z,99094.25
2017-12-15T10:08:20.355Z,99104.03
2017-12-15T10:10:52.144Z,99096.97
2017-12-15T10:13:24.186Z,99108.58
2017-12-15T10:15:57.220Z,99104.52
2017-12-15T10:18:28.791Z,99111.30
2017-12-15T10:21:01.115Z,99110.20
2017-12-15T10:23:40.069Z,99101.48
2017-12-15T10:26:13.446Z,99104.17
2017-12-15T10:28:47.493Z,99102.55
2017-12-15T10:31:18.227Z,99122.98
2017-12-15T10:33:49.256Z,99125.58
2017-12-15T10:36:20.468Z,99129.47
2017-12-15T10:38:50.905Z,99121.03
2017-12-15T10:41:21.248Z,99118.75
2017-12-15T10:43:52.275Z,99115.83
2017-12-15T10:46:24.528Z,99122.78
2017-12-15T10:48:57.196Z,99122.52
2017-12-15T10:51:29.887Z,99121.30
2017-12-15T10:54:10.113Z,99126.56
2017-12-15T10:56:41.031Z,99103.76
2017-12-15T10:59:11.401Z,99124.28
2017-12-15T11:01:43.491Z,99125.11
2017-12-15T11:04:15.416Z,99123.00
2017-12-15T11:06:46.327Z,99130.16
2017-12-15T11:09:32.872Z,99151.96
2017-12-15T11:12:13.453Z,99129.97
2017-12-15T11:14:44.252Z,99127.66
2017-12-15T11:17:15.265Z,99131.29
2017-12-15T11:19:45.766Z,99129.44
2017-12-15T11:22:16.055Z,99128.77
2017-12-15T11:24:47.471Z,99135.11
2017-12-15T11:27:23.209Z,99137.05
2017-12-15T11:29:54.995Z,99145.98
2017-12-15T11:32:28.205Z,99139.23
2017-12-15T11:35:14.157Z,99147.54
2017-12-15T11:37:51.383Z,99142.31
2017-12-15T11:40:22.728Z,99145.66
2017-12-15T11:42:56.116Z,99150.77
2017-12-15T11:45:26.754Z,99143.25
2017-12-15T11:47:57.126Z,99149.11
2017-12-15T11:50:33.122Z,99143.90
2017-12-15T11:53:04.223Z,99139.40
2017-12-15T11:55:35.289Z,99144.59
2017-12-15T11:58:08.166Z,99140.85
2017-12-15T12:00:39.547Z,99146.75
2017-12-15T12:03:10.424Z,99154.30
2017-12-15T12:05:52.288Z,99156.16
2017-12-15T12:08:24.857Z,99150.94
2017-12-15T12:10:56.424Z,99152.98
2017-12-15T12:13:28.181Z,99154.59
2017-12-15T12:16:14.322Z,99153.99
2017-12-15T12:18:46.106Z,99152.60
2017-12-15T12:21:19.940Z,99136.20
2017-12-15T12:23:56.616Z,99150.90
2017-12-15T12:26:28.076Z,99139.75
2017-12-15T12:29:00.487Z,99157.47
2017-12-15T12:31:31.916Z,99122.81
2017-12-15T12:34:07.078Z,99145.75
2017-12-15T12:36:40.600Z,99158.81
2017-12-15T12:39:19.571Z,99160.34
2017-12-15T12:41:56.139Z,99170.02
2017-12-15T12:44:30.764Z,99169.71
2017-12-15T12:47:07.795Z,99178.16
2017-12-15T12:49:39.358Z,99178.43
2017-12-15T12:52:10.847Z,99178.94
2017-12-15T12:54:43.250Z,99174.02
2017-12-15T12:57:14.228Z,99184.89
2017-12-15T12:59:48.339Z,99183.19
2017-12-15T13:02:33.262Z,99158.45
2017-12-15T13:05:05.003Z,99185.88
2017-12-15T13:07:38.533Z,99177.23
2017-12-15T13:10:11.120Z,99194.52
2017-12-15T13:12:44.211Z,99187.40
2017-12-15T13:15:19.166Z,99191.72
2017-12-15T13:17:52.307Z,99194.48
2017-12-15T13:20:23.667Z,99202.45
2017-12-15T13:22:54.994Z,99205.50
2017-12-15T13:25:26.654Z,99205.48
2017-12-15T13:27:57.512Z,99202.52
2017-12-15T13:30:28.785Z,99208.93
2017-12-15T13:32:59.245Z,99210.74
2017-12-15T13:35:29.906Z,99204.41
2017-12-15T13:38:03.219Z,99213.32
2017-12-15T13:40:35.419Z,99212.14
2017-12-15T13:43:06.271Z,99222.03
2017-12-15T13:45:37.491Z,99225.78
2017-12-15T13:48:07.919Z,99225.78
2017-12-15T13:50:39.169Z,99232.33
2017-12-15T13:53:09.503Z,99237.83
2017-12-15T13:55:40.067Z,99225.99
2017-12-15T13:58:14.844Z,99235.08
2017-12-15T14:00:54.073Z,99236.66
2017-12-15T14:03:31.944Z,99233.17
2017-12-15T14:06:05.892Z,99238.63
2017-12-15T14:08:41.119Z,99231.48
2017-12-15T14:11:15.339Z,99241.05
2017-12-15T14:13:47.498Z,99239.91
2017-12-15T14:16:19.536Z,99245.91
2017-12-15T14:18:53.218Z,99244.27
2017-12-15T14:21:27.903Z,99250.80
2017-12-15T14:23:58.412Z,99253.17
2017-12-15T14:26:30.587Z,99231.92
2017-12-15T14:29:01.081Z,99246.78
2017-12-15T14:31:39.212Z,99261.76
2017-12-15T14:34:10.232Z,99263.95
2017-12-15T14:36:40.934Z,99273.45
2017-12-15T14:39:11.473Z,99276.13
2017-12-15T14:41:42.360Z,99280.34
2017-12-15T14:44:14.690Z,99272.94
2017-12-15T14:46:45.539Z,99278.20
2017-12-15T14:49:17.544Z,99275.86
2017-12-15T14:51:48.120Z,99277.41
2017-12-15T14:54:21.669Z,99285.73
2017-12-15T14:56:52.448Z,99285.05
2017-12-15T14:59:31.158Z,99296.89
2017-12-15T15:02:06.182Z,99294.88
2017-12-15T15:04:40.485Z,99300.80
2017-12-15T15:07:15.552Z,99307.23
2017-12-15T15:09:53.681Z,99315.98
2017-12-15T15:12:24.889Z,99310.09
2017-12-15T15:14:56.051Z,99311.57
2017-12-15T15:17:27.090Z,99317.73
2017-12-15T15:19:59.094Z,99313.98
2017-12-15T15:22:30.633Z,99319.95
2017-12-15T15:25:01.057Z,99316.05
2017-12-15T15:27:34.808Z,99319.86
2017-12-15T15:32:54.000Z,99323.81
2017-12-15T15:35:26.744Z,99320.92
2017-12-15T15:37:59.269Z,99329.19
2017-12-15T15:40:30.869Z,99331.73
2017-12-15T15:43:05.663Z,99331.77
2017-12-15T15:45:36.943Z,99334.66
2017-12-15T15:48:08.881Z,99333.41
2017-12-15T15:50:40.706Z,99344.52
2017-12-15T15:53:14.589Z,99343.74
2017-12-15T15:55:58.527Z,99348.13
2017-12-15T15:58:33.322Z,99356.11
2017-12-15T16:01:04.293Z,99360.02
2017-12-15T16:03:35.032Z,99358.41
2017-12-15T16:06:05.904Z,99357.66
2017-12-15T16:08:37.330Z,99367.52
2017-12-15T16:11:08.525Z,99366.36
2017-12-15T16:13:40.911Z,99372.12
2017-12-15T16:16:21.961Z,99363.97
2017-12-15T16:18:54.958Z,99375.94
2017-12-15T16:21:41.329Z,99379.50
2017-12-15T16:24:26.682Z,99385.50
2017-12-15T16:26:57.950Z,99384.61
2017-12-15T16:29:28.743Z,99381.61
2017-12-15T16:32:00.799Z,99385.42
2017-12-15T16:34:48.015Z,99394.92
2017-12-15T16:37:19.420Z,99403.83
2017-12-15T16:39:50.376Z,99411.78
2017-12-15T16:42:22.391Z,99415.22
2017-12-15T16:44:54.808Z,99422.41
2017-12-15T16:47:27.223Z,99427.10
2017-12-15T16:49:58.959Z,99431.89
2017-12-15T16:52:29.390Z,99434.15
2017-12-15T16:55:01.352Z,99438.41
2017-12-15T16:57:32.359Z,99430.89
2017-12-15T17:00:08.756Z,99436.36
2017-12-15T17:02:39.891Z,99436.72
2017-12-15T17:05:11.282Z,99434.36
2017-12-15T17:07:42.307Z,99438.66
2017-12-15T17:10:17.218Z,99442.91
2017-12-15T17:12:50.090Z,99444.66
2017-12-15T17:15:24.600Z,99446.22
2017-12-15T17:17:56.192Z,99432.48
2017-12-15T17:20:28.608Z,99449.98
2017-12-15T17:23:02.091Z,99447.52
2017-12-15T17:25:41.412Z,99436.09
2017-12-15T17:28:13.729Z,99458.95
2017-12-15T17:30:47.292Z,99461.45
2017-12-15T17:33:22.702Z,99471.22
2017-12-15T17:35:54.741Z,99468.39
2017-12-15T17:38:26.728Z,99474.15
2017-12-15T17:40:57.447Z,99467.22
2017-12-15T17:43:38.500Z,99472.11
2017-12-15T17:46:12.543Z,99477.54
2017-12-15T17:48:45.261Z,99474.30
2017-12-15T17:51:16.078Z,99473.36
2017-12-15T17:53:50.320Z,99485.59
2017-12-15T17:56:21.186Z,99483.14
2017-12-15T17:58:52.260Z,99491.95
2017-12-15T18:01:24.466Z,99494.07
2017-12-15T18:03:56.449Z,99491.12
2017-12-15T18:06:27.656Z,99500.98
2017-12-15T18:08:59.909Z,99503.38
2017-12-15T18:11:30.975Z,99503.57
2017-12-15T18:14:02.436Z,99508.96
2017-12-15T18:16:34.357Z,99506.16
2017-12-15T18:19:05.390Z,99491.94
2017-12-15T18:21:36.600Z,99517.98
2017-12-15T18:24:09.421Z,99523.56
2017-12-15T18:26:41.005Z,99512.47
2017-12-15T18:29:14.058Z,99527.81
2017-12-15T18:31:46.035Z,99537.68
2017-12-15T18:34:17.652Z,99547.24
2017-12-15T18:36:53.641Z,99551.97
2017-12-15T18:39:25.441Z,99553.76
2017-12-15T18:42:01.320Z,99557.95
2017-12-15T18:44:36.214Z,99555.12
2017-12-15T18:47:08.343Z,99551.56
2017-12-15T18:49:39.544Z,99553.30
2017-12-15T18:52:11.691Z,99555.37
2017-12-15T18:54:42.913Z,99557.33
2017-12-15T18:57:16.224Z,99558.32
2017-12-15T18:59:47.911Z,99569.27
2017-12-15T19:02:19.421Z,99561.80
2017-12-15T19:04:50.059Z,99573.04
2017-12-15T19:07:21.024Z,99576.95
2017-12-15T19:09:56.600Z,99581.27
2017-12-15T19:12:27.884Z,99581.41
2017-12-15T19:15:05.382Z,99586.69
2017-12-15T19:17:37.041Z,99588.41
2017-12-15T19:20:09.405Z,99592.25
2017-12-15T19:22:40.872Z,99590.99
2017-12-15T19:25:18.548Z,99600.45
2017-12-15T19:27:55.203Z,99602.05
2017-12-15T19:30:26.632Z,99604.19
2017-12-15T19:33:00.164Z,99606.84
2017-12-15T19:35:30.917Z,99609.24
2017-12-15T19:38:01.284Z,99613.60
2017-12-15T19:40:34.101Z,99611.27
2017-12-15T19:43:05.022Z,99615.25
2017-12-15T19:45:38.069Z,99617.76
2017-12-15T19:48:09.732Z,99626.55
2017-12-15T19:50:40.941Z,99627.98
2017-12-15T19:53:12.204Z,99629.94
2017-12-15T19:55:43.303Z,99633.92
2017-12-15T19:58:14.457Z,99636.95
2017-12-15T20:00:47.477Z,99645.78
2017-12-15T20:03:19.825Z,99647.98
2017-12-15T20:05:50.723Z,99652.48
2017-12-15T20:08:21.474Z,99654.86
2017-12-15T20:10:52.624Z,99633.22
2017-12-15T20:13:23.569Z,99650.53
2017-12-15T20:15:54.395Z,99659.03
2017-12-15T20:18:25.121Z,99661.20
2017-12-15T20:20:56.370Z,99660.06
2017-12-15T20:23:26.964Z,99670.30
2017-12-15T20:25:57.931Z,99669.79
2017-12-15T20:28:28.736Z,99671.11
2017-12-15T20:31:00.394Z,99673.91
2017-12-15T20:33:32.136Z,99674.22
2017-12-15T20:36:03.646Z,99684.03
2017-12-15T20:38:34.880Z,99692.71
2017-12-15T20:41:05.177Z,99694.73
2017-12-15T20:43:47.132Z,99688.02
2017-12-15T20:46:18.408Z,99691.45
2017-12-15T20:48:52.677Z,99695.28
2017-12-15T20:51:23.362Z,99700.20
2017-12-15T20:53:55.774Z,99705.06
2017-12-15T20:56:29.054Z,99703.72
2017-12-15T20:59:00.335Z,99707.31
2017-12-15T21:01:32.064Z,99706.02
2017-12-15T21:04:03.365Z,99705.02
2017-12-15T21:06:35.358Z,99708.70
2017-12-15T21:09:06.468Z,99717.35
2017-12-15T21:11:37.774Z,99720.69
2017-12-15T21:14:13.255Z,99722.78
2017-12-15T21:16:44.320Z,99715.47
2017-12-15T21:19:22.076Z,99722.55
2017-12-15T21:21:53.036Z,99736.70
2017-12-15T21:24:24.847Z,99736.59
2017-12-15T21:26:55.725Z,99740.13
2017-12-15T21:29:26.467Z,99740.45
2017-12-15T21:31:58.525Z,99749.42
2017-12-15T21:34:29.499Z,99745.22
2017-12-15T21:37:00.301Z,99746.00
2017-12-15T21:39:31.112Z,99757.27
2017-12-15T21:42:04.050Z,99743.56
2017-12-15T21:44:35.630Z,99764.94
2017-12-15T21:47:06.365Z,99769.44
2017-12-15T21:49:37.274Z,99775.02
2017-12-15T21:52:07.607Z,99778.80
2017-12-15T21:54:40.562Z,99776.02
2017-12-15T21:57:12.449Z,99783.23
2017-12-15T21:59:42.981Z,99793.38
2017-12-15T22:02:14.063Z,99794.91
2017-12-15T22:04:46.118Z,99798.16
2017-12-15T22:07:17.866Z,99797.34
2017-12-15T22:09:48.494Z,99799.34
2017-12-15T22:12:25.023Z,99805.31
2017-12-15T22:14:55.796Z,99805.79
2017-12-15T22:17:27.226Z,99807.38
2017-12-15T22:19:59.979Z,99812.30
2017-12-15T22:22:31.924Z,99819.36
2017-12-15T22:25:05.267Z,99822.25
2017-12-15T22:27:37.661Z,99822.49
2017-12-15T22:30:09.916Z,99824.70
2017-12-15T22:32:43.592Z,99832.45
2017-12-15T22:35:14.032Z,99833.46
2017-12-15T22:37:44.546Z,99826.73
2017-12-15T22:40:15.924Z,99836.21
2017-12-15T22:42:46.298Z,99839.76
2017-12-15T22:45:17.968Z,99842.09
2017-12-15T22:47:48.637Z,99849.44
2017-12-15T22:50:19.397Z,99835.83
2017-12-15T22:52:53.211Z,99831.78
2017-12-15T22:55:23.749Z,99841.01
2017-12-15T22:57:56.860Z,99841.58
2017-12-15T23:00:32.276Z,99842.38
2017-12-15T23:03:03.495Z,99847.38
2017-12-15T23:05:34.886Z,99848.29
2017-12-15T23:08:11.685Z,99857.23
2017-12-15T23:10:42.493Z,99859.76
2017-12-15T23:13:13.345Z,99856.94
2017-12-15T23:15:44.049Z,99864.00
2017-12-15T23:18:15.793Z,99865.09
2017-12-15T23:20:47.117Z,99868.85
2017-12-15T23:23:17.465Z,99870.16
2017-12-15T23:25:48.174Z,99865.61
2017-12-15T23:28:18.532Z,99875.56
2017-12-15T23:30:49.310Z,99871.12
2017-12-15T23:33:21.028Z,99872.29
2017-12-15T23:35:51.728Z,99881.92
2017-12-15T23:38:22.118Z,99882.31
2017-12-15T23:40:54.060Z,99890.84
2017-12-15T23:43:25.792Z,99891.08
2017-12-15T23:45:57.982Z,99891.08
2017-12-15T23:48:29.974Z,99901.05
2017-12-15T23:51:00.583Z,99903.13
2017-12-15T23:53:33.466Z,99905.86
2017-12-15T23:57:14.841Z,99902.70
2017-12-15T23:59:46.009Z,99899.98
